Time;durP1;ratioP1;P1;durP2;ratioP2;P2;SDS_P1;SDS_P2;PMS_P1;PMS_P2;Temp;Humidity;BMP_temperature;BMP_pressure;BME280_temperature;BME280_humidity;BME280_pressure;Samples;Min_cycle;Max_cycle;Signal;HPM_P1;HPM_P2
2022/01/03 00:01:44;;;;;;;5.30;2.40;;;10.80;1.00;;;;;;5039957;28;20188;-59
2022/01/03 00:04:20;;;;;;;8.80;2.63;;;10.70;1.00;;;;;;5041395;28;20188;-59
2022/01/03 00:06:50;;;;;;;8.80;2.97;;;10.70;1.00;;;;;;5040112;28;20911;-59
2022/01/03 00:09:20;;;;;;;11.40;3.17;;;10.70;1.00;;;;;;5038035;28;20206;-59
2022/01/03 00:11:47;;;;;;;9.27;2.70;;;10.60;1.00;;;;;;5038637;28;20211;-60
2022/01/03 00:14:14;;;;;;;10.33;2.60;;;10.60;1.00;;;;;;5044567;28;20281;-59
2022/01/03 00:16:41;;;;;;;11.07;2.83;;;10.70;1.00;;;;;;5040383;28;20192;-60
2022/01/03 00:19:10;;;;;;;9.23;2.50;;;10.80;1.00;;;;;;5043756;28;20192;-60
2022/01/03 00:21:45;;;;;;;9.03;2.87;;;10.80;1.00;;;;;;5038932;28;20245;-60
2022/01/03 00:24:13;;;;;;;8.20;2.67;;;10.70;1.00;;;;;;5052059;28;20410;-60
2022/01/03 00:26:44;;;;;;;6.73;2.53;;;10.70;1.00;;;;;;5043692;28;20191;-60
2022/01/03 00:29:18;;;;;;;7.10;2.60;;;10.70;1.00;;;;;;5038177;28;20219;-58
2022/01/03 00:31:46;;;;;;;7.77;2.73;;;10.70;1.00;;;;;;5047874;28;20279;-60
2022/01/03 00:34:14;;;;;;;5.97;2.20;;;10.70;1.00;;;;;;5077960;28;20202;-59
2022/01/03 00:36:46;;;;;;;8.47;2.80;;;10.70;1.00;;;;;;5059611;28;20548;-60
2022/01/03 00:39:14;;;;;;;10.10;2.80;;;10.70;1.00;;;;;;5043777;28;20190;-60
2022/01/03 00:41:43;;;;;;;10.90;3.03;;;10.60;1.00;;;;;;5077362;28;20230;-57
2022/01/03 00:44:15;;;;;;;9.70;2.27;;;10.70;1.00;;;;;;5085424;28;20202;-59
2022/01/03 00:46:43;;;;;;;6.53;2.27;;;10.60;1.00;;;;;;5085735;28;20217;-57
2022/01/03 00:49:10;;;;;;;7.10;2.37;;;10.70;1.00;;;;;;5085410;28;20190;-58
2022/01/03 00:51:37;;;;;;;8.57;2.73;;;10.70;1.00;;;;;;5067425;28;20334;-58
2022/01/03 00:54:05;;;;;;;9.73;2.70;;;10.70;1.00;;;;;;5068950;28;20268;-60
2022/01/03 00:56:38;;;;;;;6.07;2.33;;;10.70;1.00;;;;;;5081607;28;20750;-59
2022/01/03 00:59:10;;;;;;;14.07;3.40;;;10.80;1.00;;;;;;5066107;28;20599;-59
2022/01/03 01:01:43;;;;;;;9.70;2.80;;;10.80;1.00;;;;;;5066220;28;20241;-57
2022/01/03 01:04:10;;;;;;;8.43;2.70;;;10.80;1.00;;;;;;5084498;28;20657;-59
2022/01/03 01:06:38;;;;;;;12.47;2.90;;;10.80;1.00;;;;;;5066391;28;20194;-58
2022/01/03 01:09:09;;;;;;;11.67;3.07;;;10.70;1.00;;;;;;5068447;28;20194;-59
2022/01/03 01:11:41;;;;;;;12.50;3.33;;;10.70;1.00;;;;;;5082289;28;20198;-60
2022/01/03 01:14:08;;;;;;;13.93;3.10;;;10.70;1.00;;;;;;5082961;28;20681;-59
2022/01/03 01:16:37;;;;;;;10.57;3.00;;;10.70;1.00;;;;;;5083530;28;20191;-58
2022/01/03 01:19:09;;;;;;;11.77;3.33;;;10.70;1.00;;;;;;5082968;28;20213;-57
2022/01/03 01:21:38;;;;;;;11.63;3.27;;;10.80;1.00;;;;;;5082952;28;20214;-59
2022/01/03 01:24:05;;;;;;;11.40;3.40;;;10.70;1.00;;;;;;5050518;28;20194;-58
2022/01/03 01:29:20;;;;;;;10.37;3.73;;;10.70;1.00;;;;;;5064495;28;20214;-60
2022/01/03 01:31:51;;;;;;;14.47;4.10;;;10.70;1.00;;;;;;5085279;28;20299;-60
2022/01/03 01:34:26;;;;;;;9.43;3.83;;;10.70;1.00;;;;;;5065680;28;20260;-60
2022/01/03 01:36:58;;;;;;;15.20;4.03;;;10.60;1.00;;;;;;5050682;28;20197;-60
2022/01/03 01:39:29;;;;;;;10.37;3.40;;;10.50;1.00;;;;;;5065237;28;20297;-60
2022/01/03 01:42:04;;;;;;;15.37;4.30;;;10.40;1.00;;;;;;5064146;28;20190;-60
2022/01/03 01:44:38;;;;;;;14.30;3.40;;;10.40;1.00;;;;;;5052444;28;20677;-60
2022/01/03 01:47:07;;;;;;;13.50;4.73;;;10.40;1.00;;;;;;5064603;28;20202;-60
2022/01/03 01:49:45;;;;;;;14.47;4.50;;;10.40;1.00;;;;;;5065654;28;20221;-60
2022/01/03 01:52:35;;;;;;;14.60;4.00;;;10.50;1.00;;;;;;5063027;28;20208;-59
2022/01/03 01:55:11;;;;;;;10.83;3.27;;;10.50;1.00;;;;;;5080786;28;20218;-60
2022/01/03 01:57:52;;;;;;;13.20;4.07;;;10.50;1.00;;;;;;5067057;28;20202;-59
2022/01/03 02:00:25;;;;;;;13.73;4.30;;;10.60;1.00;;;;;;5060628;28;20225;-60
2022/01/03 02:03:18;;;;;;;11.70;3.83;;;10.60;1.00;;;;;;5049813;28;20704;-60
2022/01/03 02:06:01;;;;;;;14.97;3.97;;;10.50;1.00;;;;;;5073692;28;20556;-60
2022/01/03 02:08:37;;;;;;;13.87;4.43;;;10.50;1.00;;;;;;5083387;28;20591;-60
2022/01/03 02:11:43;;;;;;;12.67;4.37;;;10.50;1.00;;;;;;5081775;28;20189;-57
2022/01/03 02:14:11;;;;;;;17.17;7.03;;;10.60;1.00;;;;;;5036933;28;20215;-58
2022/01/03 02:16:38;;;;;;;18.63;5.90;;;10.50;1.00;;;;;;5083437;28;20222;-58
2022/01/03 02:19:07;;;;;;;15.03;4.50;;;10.40;1.00;;;;;;5049306;28;20202;-58
2022/01/03 02:21:34;;;;;;;13.70;4.07;;;10.40;1.00;;;;;;5065840;28;20221;-58
2022/01/03 02:24:05;;;;;;;15.20;3.97;;;10.40;1.00;;;;;;5084790;28;20209;-63
2022/01/03 02:26:36;;;;;;;19.97;5.00;;;10.50;1.00;;;;;;5083522;28;20206;-63
2022/01/03 02:29:05;;;;;;;13.47;4.33;;;10.50;1.00;;;;;;5066762;28;20202;-64
2022/01/03 02:31:32;;;;;;;14.03;3.87;;;10.50;1.00;;;;;;5066140;28;20225;-62
2022/01/03 02:34:03;;;;;;;19.10;4.30;;;10.60;1.00;;;;;;5042077;28;20237;-62
2022/01/03 02:36:32;;;;;;;17.63;3.80;;;10.60;1.00;;;;;;5049047;28;20252;-62
2022/01/03 02:38:59;;;;;;;16.13;4.70;;;10.60;94.50;;;;;;5066763;28;20690;-64
2022/01/03 02:41:27;;;;;;;20.33;4.73;;;10.60;1.00;;;;;;5066232;28;20895;-64
2022/01/03 02:43:57;;;;;;;17.87;4.93;;;10.60;73.60;;;;;;5066966;28;20620;-64
2022/01/03 02:46:24;;;;;;;16.07;4.47;;;10.70;1.00;;;;;;5064940;28;20657;-63
2022/01/03 02:48:53;;;;;;;14.80;4.17;;;10.70;1.00;;;;;;5060133;28;20202;-63
2022/01/03 02:51:20;;;;;;;16.60;4.87;;;10.80;1.00;;;;;;5064497;28;20602;-62
2022/01/03 02:53:48;;;;;;;22.63;5.37;;;10.80;1.00;;;;;;5061316;28;20210;-63
2022/01/03 02:56:15;;;;;;;24.77;5.63;;;10.90;1.00;;;;;;5071160;28;20289;-63
2022/01/03 02:58:42;;;;;;;20.23;5.57;;;10.70;1.00;;;;;;5061130;28;20200;-63
2022/01/03 03:01:09;;;;;;;15.73;6.47;;;10.70;1.00;;;;;;5062880;28;20612;-60
2022/01/03 03:03:47;;;;;;;17.73;4.40;;;10.70;1.00;;;;;;5082953;28;21022;-64
2022/01/03 03:06:14;;;;;;;19.53;5.83;;;10.60;1.00;;;;;;5062648;28;20198;-62
2022/01/03 03:08:42;;;;;;;17.83;4.07;;;10.50;1.00;;;;;;5062649;28;20217;-62
2022/01/03 03:11:09;;;;;;;15.63;3.77;;;10.60;1.00;;;;;;5064879;28;20673;-62
2022/01/03 03:13:37;;;;;;;16.73;3.97;;;10.60;1.00;;;;;;5063002;28;20689;-62
2022/01/03 03:16:05;;;;;;;14.10;3.90;;;10.60;1.00;;;;;;5064281;28;20198;-65
2022/01/03 03:18:33;;;;;;;14.80;4.23;;;10.70;1.00;;;;;;5060741;28;20694;-63
2022/01/03 03:21:02;;;;;;;13.37;3.90;;;10.60;1.00;;;;;;5046127;28;20237;-65
2022/01/03 03:23:29;;;;;;;13.90;3.90;;;10.50;1.00;;;;;;5082114;28;20235;-62
2022/01/03 03:25:56;;;;;;;14.83;4.30;;;10.50;1.00;;;;;;5077883;28;20289;-64
2022/01/03 03:28:25;;;;;;;17.97;4.40;;;10.60;1.00;;;;;;5062468;28;20674;-63
2022/01/03 03:30:56;;;;;;;22.53;6.10;;;10.60;1.00;;;;;;5077347;28;20197;-63
2022/01/03 03:33:32;;;;;;;18.80;6.47;;;10.50;1.00;;;;;;5059167;28;20230;-63
2022/01/03 03:36:02;;;;;;;17.73;6.43;;;10.60;1.00;;;;;;5050624;28;20226;-63
2022/01/03 03:38:30;;;;;;;17.40;5.03;;;10.60;1.00;;;;;;5062028;28;20707;-65
2022/01/03 03:41:01;;;;;;;17.50;4.87;;;10.60;1.00;;;;;;5067926;28;20195;-61
2022/01/03 03:43:33;;;;;;;16.97;5.00;;;10.60;1.00;;;;;;5070352;28;20249;-65
2022/01/03 03:46:03;;;;;;;26.87;9.00;;;10.60;1.00;;;;;;5070598;28;20191;-63
2022/01/03 03:48:34;;;;;;;16.80;4.40;;;10.60;1.00;;;;;;5087689;28;20209;-63
2022/01/03 03:51:02;;;;;;;17.30;3.73;;;10.50;1.00;;;;;;5064378;28;20202;-61
2022/01/03 03:53:32;;;;;;;15.57;3.73;;;10.50;1.00;;;;;;5069027;28;20198;-64
2022/01/03 03:56:03;;;;;;;13.53;3.60;;;10.50;1.00;;;;;;5071793;28;20706;-61
2022/01/03 03:58:32;;;;;;;16.07;3.63;;;10.40;1.00;;;;;;5054325;28;20197;-62
2022/01/03 04:00:59;;;;;;;16.37;3.60;;;10.40;1.00;;;;;;5045147;28;20202;-62
2022/01/03 04:03:39;;;;;;;15.80;4.00;;;10.40;1.00;;;;;;5065271;28;20186;-63
2022/01/03 04:06:08;;;;;;;16.50;3.20;;;10.40;1.00;;;;;;5070153;28;20281;-62
2022/01/03 04:08:36;;;;;;;11.17;2.97;;;10.40;1.00;;;;;;5069216;28;20851;-63
2022/01/03 04:11:04;;;;;;;20.17;4.13;;;10.40;1.00;;;;;;5068986;28;20194;-62
2022/01/03 04:13:32;;;;;;;14.63;3.73;;;10.40;1.00;;;;;;5067228;28;20208;-62
2022/01/03 04:16:00;;;;;;;20.83;6.40;;;10.40;1.00;;;;;;5067247;28;20218;-63
2022/01/03 04:18:28;;;;;;;20.27;4.77;;;10.40;1.00;;;;;;5068070;28;20557;-62
2022/01/03 04:20:56;;;;;;;14.17;3.93;;;10.40;1.00;;;;;;5063292;28;20218;-61
2022/01/03 04:23:23;;;;;;;9.87;3.57;;;10.40;1.00;;;;;;5069031;28;20201;-60
2022/01/03 04:25:53;;;;;;;13.70;4.00;;;10.30;1.00;;;;;;5067254;28;20202;-61
2022/01/03 04:28:21;;;;;;;15.53;4.60;;;10.30;1.00;;;;;;5082954;28;20298;-62
2022/01/03 04:30:48;;;;;;;12.53;4.50;;;10.30;1.00;;;;;;5051182;28;20203;-62
2022/01/03 04:33:15;;;;;;;15.57;4.10;;;10.10;1.00;;;;;;5065569;28;20230;-62
2022/01/03 04:35:42;;;;;;;18.10;4.10;;;10.20;1.00;;;;;;5063281;28;20227;-62
2022/01/03 04:38:10;;;;;;;13.17;3.67;;;10.20;1.00;;;;;;5064589;28;20214;-61
2022/01/03 04:40:37;;;;;;;21.83;4.53;;;10.20;1.00;;;;;;5067938;28;20759;-62
2022/01/03 04:43:06;;;;;;;15.93;3.83;;;10.20;1.00;;;;;;5063979;28;20265;-61
2022/01/03 04:45:33;;;;;;;13.33;4.30;;;10.20;1.00;;;;;;5065970;28;20210;-61
2022/01/03 04:48:00;;;;;;;17.97;4.30;;;10.30;1.00;;;;;;5065729;28;20207;-61
2022/01/03 04:50:27;;;;;;;13.77;4.00;;;10.40;1.00;;;;;;5066662;28;20195;-62
2022/01/03 04:52:54;;;;;;;12.17;3.33;;;10.40;1.00;;;;;;5063122;28;20250;-62
2022/01/03 04:55:21;;;;;;;13.20;3.30;;;10.40;1.00;;;;;;5063749;28;20226;-62
2022/01/03 04:57:50;;;;;;;17.77;3.67;;;10.40;99.90;;;;;;5046027;28;20236;-63
2022/01/03 05:00:18;;;;;;;12.73;4.10;;;10.40;1.00;;;;;;5041943;28;20224;-62
2022/01/03 05:02:46;;;;;;;13.23;3.27;;;10.30;1.00;;;;;;5048639;28;20187;-63
2022/01/03 05:05:14;;;;;;;17.77;3.57;;;10.30;1.00;;;;;;5075474;28;20210;-63
2022/01/03 05:07:41;;;;;;;14.10;3.30;;;10.30;1.00;;;;;;5065051;28;20222;-63
2022/01/03 05:10:10;;;;;;;19.37;4.20;;;10.40;1.00;;;;;;5046765;28;20206;-65
2022/01/03 05:12:38;;;;;;;14.77;4.23;;;10.30;1.00;;;;;;5045973;28;20207;-63
2022/01/03 05:15:06;;;;;;;13.93;3.23;;;10.30;1.00;;;;;;5061927;28;21111;-63
2022/01/03 05:17:33;;;;;;;16.50;3.40;;;10.30;99.90;;;;;;5063459;28;20201;-63
2022/01/03 05:20:01;;;;;;;18.83;4.23;;;10.20;1.00;;;;;;5065156;28;20199;-62
2022/01/03 05:22:29;;;;;;;16.07;4.13;;;10.30;1.00;;;;;;5068777;28;20218;-62
2022/01/03 05:24:56;;;;;;;16.57;3.87;;;10.30;1.00;;;;;;5048691;28;20298;-60
2022/01/03 05:27:25;;;;;;;18.23;3.90;;;10.40;1.00;;;;;;5060457;28;20267;-64
2022/01/03 05:29:52;;;;;;;15.67;3.60;;;10.40;1.00;;;;;;5062062;28;20217;-63
2022/01/03 05:32:19;;;;;;;13.03;4.00;;;10.30;99.90;;;;;;5068407;28;20226;-63
2022/01/03 05:34:47;;;;;;;13.90;4.00;;;10.40;99.90;;;;;;5039976;28;20723;-62
2022/01/03 05:37:14;;;;;;;14.73;3.40;;;10.40;99.90;;;;;;5059740;28;20187;-63
2022/01/03 05:39:41;;;;;;;20.33;3.80;;;10.40;99.90;;;;;;5059809;28;20590;-64
2022/01/03 05:42:08;;;;;;;19.37;3.47;;;10.40;99.90;;;;;;5058761;28;20195;-61
2022/01/03 05:44:36;;;;;;;13.80;3.60;;;10.40;99.90;;;;;;5060262;28;20203;-62
2022/01/03 05:47:03;;;;;;;16.37;3.77;;;10.40;99.90;;;;;;5058988;28;20187;-63
2022/01/03 05:49:31;;;;;;;18.83;3.30;;;10.40;1.00;;;;;;5056946;28;20207;-64
2022/01/03 05:51:58;;;;;;;16.30;3.53;;;10.30;99.90;;;;;;5063514;28;20669;-63
2022/01/03 05:54:25;;;;;;;14.07;3.47;;;10.30;1.00;;;;;;5065426;28;20264;-62
2022/01/03 05:56:52;;;;;;;17.03;3.37;;;10.20;1.00;;;;;;5062319;28;20225;-63
2022/01/03 05:59:20;;;;;;;14.03;4.20;;;10.20;1.00;;;;;;5063785;28;20210;-63
2022/01/03 06:01:47;;;;;;;16.63;4.13;;;10.20;1.00;;;;;;5047225;28;20897;-63
2022/01/03 06:04:21;;;;;;;17.30;4.23;;;10.20;1.00;;;;;;5060310;28;20235;-63
2022/01/03 06:07:05;;;;;;;14.40;3.70;;;10.10;1.00;;;;;;5062175;28;20191;-64
2022/01/03 06:09:37;;;;;;;16.37;3.53;;;10.10;1.00;;;;;;5063916;28;20678;-61
2022/01/03 06:12:05;;;;;;;17.37;4.23;;;10.10;1.00;;;;;;5063703;28;20201;-62
2022/01/03 06:14:38;;;;;;;21.13;4.47;;;10.10;1.00;;;;;;5072271;28;20301;-62
2022/01/03 06:17:06;;;;;;;10.87;3.50;;;10.10;1.00;;;;;;5060356;28;20275;-62
2022/01/03 06:19:34;;;;;;;11.77;3.43;;;10.00;1.00;;;;;;5063501;28;20275;-62
2022/01/03 06:22:03;;;;;;;23.50;3.70;;;10.00;1.00;;;;;;5038095;28;20250;-61
2022/01/03 06:24:32;;;;;;;14.70;4.57;;;10.00;1.00;;;;;;5059802;28;20202;-61
2022/01/03 06:26:59;;;;;;;16.00;3.47;;;10.00;1.00;;;;;;5055897;28;20238;-62
2022/01/03 06:29:26;;;;;;;14.20;3.33;;;9.90;1.00;;;;;;5058382;28;20215;-61
2022/01/03 06:31:54;;;;;;;14.63;2.57;;;9.90;1.00;;;;;;5064031;28;20226;-61
2022/01/03 06:34:23;;;;;;;16.50;3.57;;;10.00;1.00;;;;;;5065566;28;20555;-61
2022/01/03 06:36:50;;;;;;;16.97;4.10;;;10.00;1.00;;;;;;5068942;28;20209;-62
2022/01/03 06:39:17;;;;;;;15.93;3.67;;;10.00;1.00;;;;;;5062677;28;20562;-63
2022/01/03 06:41:44;;;;;;;19.03;3.90;;;9.90;1.00;;;;;;5068349;28;20194;-62
2022/01/03 06:44:13;;;;;;;20.20;3.67;;;9.90;1.00;;;;;;5065275;28;20262;-62
2022/01/03 06:46:41;;;;;;;20.07;4.20;;;9.80;1.00;;;;;;5061252;28;20206;-62
2022/01/03 06:49:08;;;;;;;19.67;4.30;;;9.80;1.00;;;;;;5063157;28;20197;-61
2022/01/03 06:51:37;;;;;;;13.97;3.17;;;9.80;1.00;;;;;;5076864;28;20637;-62
2022/01/03 06:54:13;;;;;;;17.70;3.80;;;9.70;1.00;;;;;;5061635;28;20739;-61
2022/01/03 06:56:45;;;;;;;17.20;3.67;;;9.70;1.00;;;;;;5049386;28;20241;-62
2022/01/03 06:59:13;;;;;;;9.43;2.70;;;9.70;1.00;;;;;;5063856;28;20201;-60
2022/01/03 07:01:40;;;;;;;18.07;3.97;;;9.70;1.00;;;;;;5070113;28;20194;-61
2022/01/03 07:04:08;;;;;;;19.53;3.37;;;9.80;1.00;;;;;;5060612;28;20688;-61
2022/01/03 07:06:36;;;;;;;17.60;3.53;;;9.90;1.00;;;;;;5077699;28;20610;-61
2022/01/03 07:09:06;;;;;;;16.53;3.00;;;9.90;1.00;;;;;;5082096;28;20194;-61
2022/01/03 07:11:34;;;;;;;15.70;3.27;;;9.90;1.00;;;;;;5063763;28;20613;-61
2022/01/03 07:19:35;;;;;;;15.70;3.50;;;10.00;1.00;;;;;;5061963;28;24179;-61
2022/01/03 07:22:04;;;;;;;12.43;3.20;;;10.00;1.00;;;;;;5081497;28;20271;-62
2022/01/03 07:24:32;;;;;;;12.87;3.60;;;10.10;1.00;;;;;;5081701;28;20676;-62
2022/01/03 07:27:04;;;;;;;11.50;3.50;;;10.10;1.00;;;;;;5067808;28;20265;-61
2022/01/03 07:29:31;;;;;;;11.80;3.33;;;10.10;1.00;;;;;;5066053;28;20198;-63
2022/01/03 07:31:59;;;;;;;12.03;3.60;;;10.10;1.00;;;;;;5067940;28;20270;-62
2022/01/03 07:34:27;;;;;;;13.73;3.17;;;10.10;1.00;;;;;;5044391;28;20339;-61
2022/01/03 07:36:54;;;;;;;11.53;3.00;;;10.10;1.00;;;;;;5085290;28;20313;-62
2022/01/03 07:39:21;;;;;;;19.27;3.93;;;10.00;1.00;;;;;;5060726;28;20227;-61
2022/01/03 07:41:48;;;;;;;14.37;3.60;;;10.00;1.00;;;;;;5066718;28;20201;-62
2022/01/03 07:44:16;;;;;;;18.97;3.50;;;10.00;1.00;;;;;;5059242;28;20191;-62
2022/01/03 07:46:43;;;;;;;15.37;3.77;;;10.10;1.00;;;;;;5082719;28;20197;-62
2022/01/03 07:49:11;;;;;;;11.80;3.17;;;10.10;1.00;;;;;;5064405;28;20433;-61
2022/01/03 07:51:38;;;;;;;17.20;3.30;;;10.20;1.00;;;;;;5084115;28;20719;-61
2022/01/03 07:54:05;;;;;;;13.13;3.50;;;10.20;1.00;;;;;;5067596;28;20614;-62
2022/01/03 07:56:33;;;;;;;13.73;2.83;;;10.20;1.00;;;;;;5062893;28;20443;-62
2022/01/03 07:59:00;;;;;;;19.03;3.23;;;10.20;1.00;;;;;;5063802;28;20669;-61
2022/01/03 08:01:27;;;;;;;15.03;3.70;;;10.20;1.00;;;;;;5049424;28;20204;-61
2022/01/03 08:03:54;;;;;;;12.53;3.43;;;10.20;1.00;;;;;;5072444;28;20194;-61
2022/01/03 08:06:41;;;;;;;13.97;3.57;;;10.30;1.00;;;;;;5087098;28;20202;-62
2022/01/03 08:09:08;;;;;;;12.87;3.47;;;10.20;1.00;;;;;;5050191;28;20320;-62
2022/01/03 08:11:35;;;;;;;20.37;3.77;;;10.30;1.00;;;;;;5066735;28;20713;-63
2022/01/03 08:14:02;;;;;;;17.10;4.43;;;10.30;1.00;;;;;;5086556;28;20565;-62
2022/01/03 08:16:29;;;;;;;16.50;3.57;;;10.30;1.00;;;;;;5086121;28;20221;-62
2022/01/03 08:18:56;;;;;;;12.20;3.13;;;10.40;1.00;;;;;;5084640;28;20436;-61
2022/01/03 08:21:23;;;;;;;12.97;3.70;;;10.40;1.00;;;;;;5066113;28;20307;-63
2022/01/03 08:23:51;;;;;;;18.47;4.10;;;10.40;1.00;;;;;;5088978;28;20244;-62
2022/01/03 08:26:18;;;;;;;14.67;3.83;;;10.40;1.00;;;;;;5086406;28;20194;-61
2022/01/03 08:28:45;;;;;;;12.77;3.43;;;10.40;1.00;;;;;;5068680;28;20228;-61
2022/01/03 08:31:12;;;;;;;15.87;3.60;;;10.40;1.00;;;;;;5086970;28;20249;-61
2022/01/03 08:33:40;;;;;;;14.83;4.13;;;10.40;1.00;;;;;;5065521;28;20262;-61
2022/01/03 08:36:07;;;;;;;10.27;3.40;;;10.40;1.00;;;;;;5084587;28;20210;-60
2022/01/03 08:38:34;;;;;;;12.83;3.50;;;10.40;1.00;;;;;;5087711;28;20190;-61
2022/01/03 08:41:02;;;;;;;18.00;4.00;;;10.40;1.00;;;;;;5050225;28;20198;-62
2022/01/03 08:43:31;;;;;;;11.50;3.17;;;10.50;1.00;;;;;;5084547;28;20273;-62
2022/01/03 08:45:58;;;;;;;14.47;3.57;;;10.50;1.00;;;;;;5062126;28;20235;-61
2022/01/03 08:48:25;;;;;;;20.50;3.77;;;10.50;1.00;;;;;;5067035;28;20203;-62
2022/01/03 08:50:52;;;;;;;15.53;3.50;;;10.30;1.00;;;;;;5047906;28;20287;-62
2022/01/03 08:53:26;;;;;;;20.50;4.07;;;10.20;99.90;;;;;;5087053;28;20623;-63
2022/01/03 08:55:54;;;;;;;16.17;3.43;;;10.10;99.90;;;;;;5081009;28;20206;-62
2022/01/03 08:58:22;;;;;;;12.73;4.07;;;10.00;99.90;;;;;;5068317;28;20222;-62
2022/01/03 09:00:50;;;;;;;17.83;3.73;;;9.90;59.90;;;;;;5086007;28;20250;-60
2022/01/03 09:03:18;;;;;;;20.17;3.47;;;9.90;99.90;;;;;;5082265;28;20285;-62
2022/01/03 09:05:45;;;;;;;12.37;3.37;;;9.90;99.90;;;;;;5059088;28;20234;-62
2022/01/03 09:08:12;;;;;;;15.90;3.03;;;10.00;99.90;;;;;;5066526;28;20669;-65
2022/01/03 09:10:40;;;;;;;18.70;3.90;;;10.00;99.90;;;;;;5064931;28;20647;-62
2022/01/03 09:13:07;;;;;;;10.63;2.63;;;10.00;99.90;;;;;;5084682;28;20635;-62
2022/01/03 09:15:36;;;;;;;9.53;2.57;;;10.00;27.80;;;;;;5068209;28;20237;-61
2022/01/03 09:18:06;;;;;;;17.37;3.50;;;10.00;1.00;;;;;;5061470;28;20626;-60
2022/01/03 09:20:33;;;;;;;17.43;3.10;;;10.00;99.90;;;;;;5067939;28;20218;-61
2022/01/03 09:23:08;;;;;;;13.20;2.77;;;9.90;1.00;;;;;;5086635;28;20194;-62
2022/01/03 09:30:51;;;;;;;11.10;3.30;;;9.60;1.00;;;;;;5083949;28;20649;-62
2022/01/03 09:33:18;;;;;;;11.20;3.10;;;9.70;1.00;;;;;;5085595;28;20287;-63
2022/01/03 09:35:51;;;;;;;10.40;3.73;;;9.80;1.00;;;;;;5086990;28;20578;-64
2022/01/03 09:38:18;;;;;;;15.53;3.20;;;9.80;1.00;;;;;;5088615;28;20829;-64
2022/01/03 09:40:46;;;;;;;16.63;3.10;;;9.80;1.00;;;;;;5088200;28;20695;-63
2022/01/03 09:43:17;;;;;;;14.23;3.60;;;9.70;99.90;;;;;;5086921;28;20661;-63
2022/01/03 09:45:47;;;;;;;13.50;3.73;;;9.60;99.90;;;;;;5061932;28;20198;-61
2022/01/03 09:48:15;;;;;;;14.23;4.17;;;9.60;1.00;;;;;;5082497;28;20205;-61
2022/01/03 09:50:44;;;;;;;14.57;4.77;;;9.60;1.00;;;;;;5065066;28;20224;-62
2022/01/03 09:53:12;;;;;;;19.27;5.50;;;9.70;1.00;;;;;;5061420;28;20628;-64
2022/01/03 09:55:41;;;;;;;16.37;5.77;;;9.90;1.00;;;;;;5069473;28;20218;-62
2022/01/03 09:58:10;;;;;;;16.27;4.67;;;9.90;1.00;;;;;;5088631;28;20282;-62
2022/01/03 10:00:37;;;;;;;17.93;4.10;;;9.90;99.90;;;;;;5047589;28;20201;-62
2022/01/03 10:03:05;;;;;;;15.17;6.67;;;9.90;99.90;;;;;;5087381;28;20196;-62
2022/01/03 10:05:32;;;;;;;20.03;4.73;;;9.90;1.00;;;;;;5083438;28;20262;-63
2022/01/03 10:08:01;;;;;;;18.53;4.27;;;9.80;1.00;;;;;;5044436;28;20194;-61
2022/01/03 10:10:34;;;;;;;26.10;5.03;;;9.90;1.00;;;;;;5079887;28;20570;-61
2022/01/03 10:13:02;;;;;;;18.43;5.17;;;10.00;99.90;;;;;;5062519;28;20645;-61
2022/01/03 10:15:29;;;;;;;13.57;4.23;;;10.10;99.90;;;;;;5085536;28;20218;-61
2022/01/03 10:17:57;;;;;;;19.40;4.00;;;10.10;99.90;;;;;;5069385;28;20700;-61
2022/01/03 10:20:28;;;;;;;11.53;3.60;;;10.20;99.90;;;;;;5086067;28;20210;-61
2022/01/03 10:23:08;;;;;;;12.43;4.10;;;10.30;99.90;;;;;;5087573;28;20186;-61
2022/01/03 10:25:35;;;;;;;15.90;4.57;;;10.30;50.30;;;;;;5073393;28;20205;-61
2022/01/03 10:28:06;;;;;;;14.73;4.13;;;10.40;99.90;;;;;;5088393;28;20689;-61
2022/01/03 10:30:39;;;;;;;16.13;4.53;;;10.50;1.00;;;;;;5072403;28;20218;-61
2022/01/03 10:33:09;;;;;;;16.17;4.47;;;10.50;71.50;;;;;;5063153;28;20253;-63
2022/01/03 10:35:48;;;;;;;22.53;4.73;;;11.60;1.00;;;;;;5088726;28;20305;-63
2022/01/03 10:38:36;;;;;;;15.03;4.17;;;11.80;99.90;;;;;;5073091;28;20632;-62
2022/01/03 10:41:22;;;;;;;16.67;4.60;;;11.50;1.00;;;;;;5088150;28;20213;-63
2022/01/03 10:43:55;;;;;;;16.43;4.37;;;11.20;1.00;;;;;;5087599;28;20190;-63
2022/01/03 10:46:26;;;;;;;15.73;4.03;;;11.00;1.00;;;;;;5071704;28;20202;-63
2022/01/03 10:49:06;;;;;;;15.87;5.27;;;10.80;1.00;;;;;;5081983;28;20220;-63
2022/01/03 10:51:33;;;;;;;18.30;4.77;;;10.90;1.00;;;;;;5069486;28;20197;-62
2022/01/03 10:54:01;;;;;;;16.80;3.93;;;10.80;1.00;;;;;;5092290;28;20198;-64
2022/01/03 10:56:35;;;;;;;20.23;4.20;;;10.80;1.00;;;;;;5091072;28;20226;-62
2022/01/03 10:59:18;;;;;;;14.03;3.80;;;10.80;1.00;;;;;;5087637;28;20190;-63
2022/01/03 11:01:48;;;;;;;18.80;4.13;;;11.00;1.00;;;;;;5083798;28;20852;-62
2022/01/03 11:04:55;;;;;;;13.17;3.60;;;11.20;1.00;;;;;;5090508;28;20552;-62
2022/01/03 11:13:17;;;;;;;14.80;3.70;;;11.10;1.00;;;;;;5080190;28;20212;-63
2022/01/03 11:15:59;;;;;;;13.90;4.00;;;11.20;1.00;;;;;;5067827;28;20606;-64
2022/01/03 11:18:34;;;;;;;14.93;2.90;;;11.00;1.00;;;;;;5090217;28;20208;-62
2022/01/03 11:21:03;;;;;;;16.47;4.30;;;11.00;1.00;;;;;;5093273;28;20205;-62
2022/01/03 11:23:32;;;;;;;13.17;3.50;;;11.00;1.00;;;;;;5070573;28;21096;-62
2022/01/03 11:26:06;;;;;;;12.97;3.67;;;10.90;1.00;;;;;;5091019;28;20186;-62
2022/01/03 11:28:33;;;;;;;16.47;3.33;;;10.90;1.00;;;;;;5090456;28;20235;-64
2022/01/03 11:31:01;;;;;;;13.73;3.57;;;11.00;99.90;;;;;;5090425;28;20212;-63
2022/01/03 11:33:30;;;;;;;13.53;3.60;;;11.00;1.00;;;;;;5090411;28;20245;-62
2022/01/03 11:36:20;;;;;;;16.07;3.50;;;11.10;1.00;;;;;;5090937;28;20293;-63
2022/01/03 11:38:48;;;;;;;11.77;3.50;;;11.10;99.90;;;;;;5063912;28;20791;-64
2022/01/03 11:41:16;;;;;;;13.23;3.77;;;11.20;99.90;;;;;;5086946;28;20274;-64
2022/01/03 11:43:44;;;;;;;13.00;3.17;;;11.00;99.90;;;;;;5061311;28;20194;-62
2022/01/03 11:46:11;;;;;;;12.20;3.63;;;11.10;99.90;;;;;;5081446;28;20202;-63
2022/01/03 11:48:39;;;;;;;11.10;2.70;;;11.00;99.90;;;;;;5077778;28;20764;-62
2022/01/03 11:51:11;;;;;;;13.13;3.30;;;11.00;1.00;;;;;;5084927;28;20202;-62
2022/01/03 11:53:49;;;;;;;15.67;2.90;;;11.00;99.90;;;;;;5048810;28;20202;-62
2022/01/03 11:56:20;;;;;;;17.93;3.70;;;11.00;99.90;;;;;;5085401;28;20634;-63
2022/01/03 12:04:58;;;;;;;11.67;2.60;;;11.10;99.90;;;;;;5077347;28;20204;-64
2022/01/03 12:07:26;;;;;;;11.97;3.10;;;11.20;99.90;;;;;;5053690;28;20267;-63
2022/01/03 12:10:09;;;;;;;10.17;3.43;;;11.20;99.90;;;;;;5083087;28;20741;-62
2022/01/03 12:12:38;;;;;;;11.13;3.00;;;11.30;99.90;;;;;;5086460;28;20309;-61
2022/01/03 12:15:26;;;;;;;12.37;3.30;;;11.30;99.90;;;;;;5071920;28;20275;-63
2022/01/03 12:17:55;;;;;;;9.30;2.97;;;11.20;99.90;;;;;;5076390;28;20230;-63
2022/01/03 12:20:41;;;;;;;15.70;3.57;;;11.20;99.90;;;;;;5081235;28;20612;-64
2022/01/03 12:23:09;;;;;;;13.70;3.97;;;11.30;99.90;;;;;;5063000;28;20190;-62
2022/01/03 12:25:38;;;;;;;15.37;3.50;;;11.20;99.90;;;;;;5087536;28;20222;-62
2022/01/03 12:28:07;;;;;;;12.93;3.97;;;11.20;99.90;;;;;;5083192;28;20218;-63
2022/01/03 12:30:37;;;;;;;11.93;3.60;;;11.10;99.90;;;;;;5084888;28;20650;-64
2022/01/03 12:33:07;;;;;;;16.80;3.70;;;11.20;99.90;;;;;;5087618;28;20288;-63
2022/01/03 12:35:43;;;;;;;16.53;3.67;;;11.20;99.90;;;;;;5083240;28;20673;-62
2022/01/03 12:38:13;;;;;;;12.00;4.30;;;11.30;99.90;;;;;;5049443;28;20221;-63
2022/01/03 12:40:43;;;;;;;13.70;4.07;;;11.30;99.90;;;;;;5047185;28;20198;-63
2022/01/03 12:43:17;;;;;;;12.83;2.80;;;11.40;99.90;;;;;;5089615;28;20558;-63
2022/01/03 12:45:44;;;;;;;13.43;3.37;;;11.50;99.90;;;;;;5084011;28;20217;-63
2022/01/03 12:48:11;;;;;;;13.37;3.67;;;11.60;99.90;;;;;;5079920;28;20273;-64
2022/01/03 12:50:51;;;;;;;14.00;3.73;;;12.20;99.90;;;;;;5082600;28;20201;-63
2022/01/03 12:53:27;;;;;;;11.53;2.90;;;12.70;1.00;;;;;;5061556;28;20221;-63
2022/01/03 12:56:05;;;;;;;15.43;3.63;;;12.30;1.00;;;;;;5083392;28;20716;-63
2022/01/03 12:58:32;;;;;;;8.03;2.70;;;11.90;37.00;;;;;;5088648;28;20265;-63
2022/01/03 13:01:05;;;;;;;18.20;4.33;;;11.70;99.90;;;;;;5083293;28;20217;-64
2022/01/03 13:03:50;;;;;;;14.20;3.87;;;11.50;99.90;;;;;;5067587;28;20272;-65
2022/01/03 13:06:18;;;;;;;12.13;3.57;;;11.40;99.90;;;;;;5069260;28;20212;-63
2022/01/03 13:08:51;;;;;;;14.57;3.37;;;11.40;99.90;;;;;;5088644;28;20259;-64
2022/01/03 13:11:21;;;;;;;15.17;3.63;;;11.30;99.90;;;;;;5083879;28;20562;-63
2022/01/03 13:13:50;;;;;;;11.93;2.90;;;11.30;99.90;;;;;;5070227;28;20190;-65
2022/01/03 13:16:17;;;;;;;12.43;3.23;;;11.30;99.90;;;;;;5068031;28;20248;-63
2022/01/03 13:18:46;;;;;;;16.27;3.50;;;11.40;99.90;;;;;;5058763;28;20256;-63
2022/01/03 13:21:14;;;;;;;14.80;2.83;;;11.30;99.90;;;;;;5085016;28;20210;-63
2022/01/03 13:23:55;;;;;;;17.27;4.07;;;11.20;99.90;;;;;;5068493;28;20636;-63
2022/01/03 13:26:24;;;;;;;18.23;3.13;;;11.20;99.90;;;;;;5087260;28;20205;-62